sensor_id;sensor_type;location;lat;lon;timestamp;P1;durP1;ratioP1;P2;durP2;ratioP2
23714;SDS011;12036;50.858;4.472;2023-08-06T00:00:37;3.90;;;1.00;;
23714;SDS011;12036;50.858;4.472;2023-08-06T00:03:03;2.92;;;1.05;;
23714;SDS011;12036;50.858;4.472;2023-08-06T00:05:29;4.60;;;1.20;;
23714;SDS011;12036;50.858;4.472;2023-08-06T00:07:54;3.17;;;1.30;;
23714;SDS011;12036;50.858;4.472;2023-08-06T00:10:20;3.22;;;1.10;;
23714;SDS011;12036;50.858;4.472;2023-08-06T00:12:46;4.03;;;1.20;;
23714;SDS011;12036;50.858;4.472;2023-08-06T00:15:11;1.90;;;1.40;;
23714;SDS011;12036;50.858;4.472;2023-08-06T00:17:37;6.93;;;1.50;;
23714;SDS011;12036;50.858;4.472;2023-08-06T00:20:03;3.60;;;1.60;;
23714;SDS011;12036;50.858;4.472;2023-08-06T00:22:32;4.75;;;1.73;;
23714;SDS011;12036;50.858;4.472;2023-08-06T00:24:58;4.32;;;1.60;;
23714;SDS011;12036;50.858;4.472;2023-08-06T00:27:24;3.10;;;1.70;;
23714;SDS011;12036;50.858;4.472;2023-08-06T00:29:49;3.97;;;1.55;;
23714;SDS011;12036;50.858;4.472;2023-08-06T00:32:15;4.07;;;2.00;;
23714;SDS011;12036;50.858;4.472;2023-08-06T00:34:41;6.47;;;1.90;;
23714;SDS011;12036;50.858;4.472;2023-08-06T00:37:06;6.88;;;2.20;;
23714;SDS011;12036;50.858;4.472;2023-08-06T00:39:32;7.63;;;2.20;;
23714;SDS011;12036;50.858;4.472;2023-08-06T00:41:57;5.30;;;2.30;;
23714;SDS011;12036;50.858;4.472;2023-08-06T00:44:23;6.85;;;2.85;;
23714;SDS011;12036;50.858;4.472;2023-08-06T00:46:49;5.30;;;2.80;;
23714;SDS011;12036;50.858;4.472;2023-08-06T00:49:15;4.32;;;2.80;;
23714;SDS011;12036;50.858;4.472;2023-08-06T00:51:41;6.20;;;3.20;;
23714;SDS011;12036;50.858;4.472;2023-08-06T00:54:07;5.15;;;3.45;;
23714;SDS011;12036;50.858;4.472;2023-08-06T00:56:34;5.47;;;3.30;;
23714;SDS011;12036;50.858;4.472;2023-08-06T00:59:04;6.53;;;3.40;;
23714;SDS011;12036;50.858;4.472;2023-08-06T01:01:30;6.32;;;3.28;;
23714;SDS011;12036;50.858;4.472;2023-08-06T01:03:56;9.70;;;4.13;;
23714;SDS011;12036;50.858;4.472;2023-08-06T01:06:39;7.88;;;3.50;;
23714;SDS011;12036;50.858;4.472;2023-08-06T01:15:05;5.45;;;3.63;;
23714;SDS011;12036;50.858;4.472;2023-08-06T01:17:36;4.90;;;3.40;;
23714;SDS011;12036;50.858;4.472;2023-08-06T01:20:04;9.60;;;4.13;;
23714;SDS011;12036;50.858;4.472;2023-08-06T01:22:30;7.45;;;4.05;;
23714;SDS011;12036;50.858;4.472;2023-08-06T01:24:55;10.25;;;4.45;;
23714;SDS011;12036;50.858;4.472;2023-08-06T01:27:33;7.70;;;4.63;;
23714;SDS011;12036;50.858;4.472;2023-08-06T01:30:24;11.98;;;5.03;;
23714;SDS011;12036;50.858;4.472;2023-08-06T01:32:53;11.05;;;4.82;;
23714;SDS011;12036;50.858;4.472;2023-08-06T01:35:23;11.18;;;5.40;;
23714;SDS011;12036;50.858;4.472;2023-08-06T01:37:51;11.65;;;5.70;;
23714;SDS011;12036;50.858;4.472;2023-08-06T01:40:17;13.77;;;5.55;;
23714;SDS011;12036;50.858;4.472;2023-08-06T01:42:43;11.75;;;5.47;;
23714;SDS011;12036;50.858;4.472;2023-08-06T01:45:09;8.02;;;5.03;;
23714;SDS011;12036;50.858;4.472;2023-08-06T01:47:35;11.48;;;5.40;;
23714;SDS011;12036;50.858;4.472;2023-08-06T01:50:01;10.85;;;5.22;;
23714;SDS011;12036;50.858;4.472;2023-08-06T01:52:27;12.02;;;5.45;;
23714;SDS011;12036;50.858;4.472;2023-08-06T01:54:53;13.68;;;5.45;;
23714;SDS011;12036;50.858;4.472;2023-08-06T01:57:19;10.10;;;5.18;;
23714;SDS011;12036;50.858;4.472;2023-08-06T01:59:45;15.77;;;5.85;;
23714;SDS011;12036;50.858;4.472;2023-08-06T02:02:10;11.13;;;5.20;;
23714;SDS011;12036;50.858;4.472;2023-08-06T02:04:36;11.23;;;5.40;;
23714;SDS011;12036;50.858;4.472;2023-08-06T02:07:02;14.60;;;5.78;;
23714;SDS011;12036;50.858;4.472;2023-08-06T02:09:27;10.23;;;4.78;;
23714;SDS011;12036;50.858;4.472;2023-08-06T02:11:53;10.80;;;5.07;;
23714;SDS011;12036;50.858;4.472;2023-08-06T02:14:18;13.70;;;5.07;;
23714;SDS011;12036;50.858;4.472;2023-08-06T02:16:44;14.80;;;4.82;;
23714;SDS011;12036;50.858;4.472;2023-08-06T02:19:10;8.20;;;4.30;;
23714;SDS011;12036;50.858;4.472;2023-08-06T02:21:35;10.48;;;4.60;;
23714;SDS011;12036;50.858;4.472;2023-08-06T02:24:01;12.55;;;3.90;;
23714;SDS011;12036;50.858;4.472;2023-08-06T02:26:27;7.78;;;3.63;;
23714;SDS011;12036;50.858;4.472;2023-08-06T02:28:53;11.95;;;3.55;;
23714;SDS011;12036;50.858;4.472;2023-08-06T02:31:18;11.02;;;3.63;;
23714;SDS011;12036;50.858;4.472;2023-08-06T02:33:44;5.25;;;2.95;;
23714;SDS011;12036;50.858;4.472;2023-08-06T02:36:10;7.10;;;3.17;;
23714;SDS011;12036;50.858;4.472;2023-08-06T02:38:35;6.85;;;2.58;;
23714;SDS011;12036;50.858;4.472;2023-08-06T02:41:04;7.70;;;3.30;;
23714;SDS011;12036;50.858;4.472;2023-08-06T02:43:30;11.98;;;3.30;;
23714;SDS011;12036;50.858;4.472;2023-08-06T02:45:59;8.27;;;2.38;;
23714;SDS011;12036;50.858;4.472;2023-08-06T02:48:25;7.43;;;2.50;;
23714;SDS011;12036;50.858;4.472;2023-08-06T02:50:51;8.70;;;2.60;;
23714;SDS011;12036;50.858;4.472;2023-08-06T02:53:17;4.93;;;2.47;;
23714;SDS011;12036;50.858;4.472;2023-08-06T02:55:46;8.65;;;2.38;;
23714;SDS011;12036;50.858;4.472;2023-08-06T02:58:13;6.60;;;2.58;;
23714;SDS011;12036;50.858;4.472;2023-08-06T03:00:39;8.98;;;2.30;;
23714;SDS011;12036;50.858;4.472;2023-08-06T03:03:05;8.45;;;2.38;;
23714;SDS011;12036;50.858;4.472;2023-08-06T03:05:30;9.68;;;2.67;;
23714;SDS011;12036;50.858;4.472;2023-08-06T03:07:56;6.90;;;2.90;;
23714;SDS011;12036;50.858;4.472;2023-08-06T03:10:21;13.30;;;2.60;;
23714;SDS011;12036;50.858;4.472;2023-08-06T03:12:47;10.80;;;2.97;;
23714;SDS011;12036;50.858;4.472;2023-08-06T03:15:13;6.10;;;2.85;;
23714;SDS011;12036;50.858;4.472;2023-08-06T03:17:38;17.45;;;4.07;;
23714;SDS011;12036;50.858;4.472;2023-08-06T03:20:05;8.80;;;3.42;;
23714;SDS011;12036;50.858;4.472;2023-08-06T03:22:31;10.40;;;3.97;;
23714;SDS011;12036;50.858;4.472;2023-08-06T03:24:56;12.70;;;4.90;;
23714;SDS011;12036;50.858;4.472;2023-08-06T03:27:22;13.35;;;4.72;;
23714;SDS011;12036;50.858;4.472;2023-08-06T03:29:51;11.25;;;5.60;;
23714;SDS011;12036;50.858;4.472;2023-08-06T03:32:16;13.50;;;5.57;;
23714;SDS011;12036;50.858;4.472;2023-08-06T03:34:42;14.00;;;5.97;;
23714;SDS011;12036;50.858;4.472;2023-08-06T03:37:08;14.15;;;7.13;;
23714;SDS011;12036;50.858;4.472;2023-08-06T03:39:33;17.13;;;7.22;;
23714;SDS011;12036;50.858;4.472;2023-08-06T03:41:59;19.05;;;8.55;;
23714;SDS011;12036;50.858;4.472;2023-08-06T03:44:25;18.38;;;8.02;;
23714;SDS011;12036;50.858;4.472;2023-08-06T03:46:52;20.98;;;8.07;;
23714;SDS011;12036;50.858;4.472;2023-08-06T03:49:17;25.42;;;9.32;;
23714;SDS011;12036;50.858;4.472;2023-08-06T03:51:43;24.83;;;9.93;;
23714;SDS011;12036;50.858;4.472;2023-08-06T03:54:08;24.17;;;9.68;;
23714;SDS011;12036;50.858;4.472;2023-08-06T03:56:34;25.05;;;10.52;;
23714;SDS011;12036;50.858;4.472;2023-08-06T03:59:00;22.90;;;10.23;;
23714;SDS011;12036;50.858;4.472;2023-08-06T04:01:25;23.42;;;9.68;;
23714;SDS011;12036;50.858;4.472;2023-08-06T04:03:51;20.23;;;8.18;;
23714;SDS011;12036;50.858;4.472;2023-08-06T04:06:16;18.88;;;8.10;;
23714;SDS011;12036;50.858;4.472;2023-08-06T04:08:42;13.10;;;7.07;;
23714;SDS011;12036;50.858;4.472;2023-08-06T04:11:08;10.40;;;5.13;;
23714;SDS011;12036;50.858;4.472;2023-08-06T04:13:34;10.15;;;4.70;;
23714;SDS011;12036;50.858;4.472;2023-08-06T04:16:02;8.32;;;3.70;;
23714;SDS011;12036;50.858;4.472;2023-08-06T04:18:28;2.67;;;2.00;;
23714;SDS011;12036;50.858;4.472;2023-08-06T04:20:54;2.95;;;1.05;;
23714;SDS011;12036;50.858;4.472;2023-08-06T04:23:22;1.58;;;0.90;;
23714;SDS011;12036;50.858;4.472;2023-08-06T04:25:48;2.80;;;0.70;;
23714;SDS011;12036;50.858;4.472;2023-08-06T04:28:13;3.08;;;0.90;;
23714;SDS011;12036;50.858;4.472;2023-08-06T04:30:39;1.15;;;0.60;;
23714;SDS011;12036;50.858;4.472;2023-08-06T04:33:04;0.40;;;0.40;;
23714;SDS011;12036;50.858;4.472;2023-08-06T04:35:30;1.27;;;0.63;;
23714;SDS011;12036;50.858;4.472;2023-08-06T04:37:56;2.00;;;1.00;;
23714;SDS011;12036;50.858;4.472;2023-08-06T04:40:21;1.30;;;1.10;;
23714;SDS011;12036;50.858;4.472;2023-08-06T04:42:47;5.28;;;1.00;;
23714;SDS011;12036;50.858;4.472;2023-08-06T04:45:13;2.75;;;1.30;;
23714;SDS011;12036;50.858;4.472;2023-08-06T04:47:38;1.88;;;1.50;;
23714;SDS011;12036;50.858;4.472;2023-08-06T04:50:04;4.05;;;1.70;;
23714;SDS011;12036;50.858;4.472;2023-08-06T04:52:30;4.32;;;1.83;;
23714;SDS011;12036;50.858;4.472;2023-08-06T04:54:57;4.78;;;1.80;;
23714;SDS011;12036;50.858;4.472;2023-08-06T04:57:23;4.65;;;2.10;;
23714;SDS011;12036;50.858;4.472;2023-08-06T04:59:48;7.10;;;2.78;;
23714;SDS011;12036;50.858;4.472;2023-08-06T05:02:14;5.00;;;2.60;;
23714;SDS011;12036;50.858;4.472;2023-08-06T05:04:40;7.07;;;2.60;;
23714;SDS011;12036;50.858;4.472;2023-08-06T05:07:05;5.18;;;2.90;;
23714;SDS011;12036;50.858;4.472;2023-08-06T05:09:31;5.45;;;2.58;;
23714;SDS011;12036;50.858;4.472;2023-08-06T05:11:57;8.73;;;2.72;;
23714;SDS011;12036;50.858;4.472;2023-08-06T05:14:25;5.97;;;2.65;;
23714;SDS011;12036;50.858;4.472;2023-08-06T05:16:51;6.47;;;2.60;;
23714;SDS011;12036;50.858;4.472;2023-08-06T05:19:17;10.73;;;2.40;;
23714;SDS011;12036;50.858;4.472;2023-08-06T05:21:42;5.50;;;2.72;;
23714;SDS011;12036;50.858;4.472;2023-08-06T05:24:08;7.28;;;3.20;;
23714;SDS011;12036;50.858;4.472;2023-08-06T05:26:33;4.40;;;2.60;;
23714;SDS011;12036;50.858;4.472;2023-08-06T05:29:00;7.70;;;2.78;;
23714;SDS011;12036;50.858;4.472;2023-08-06T05:31:25;4.13;;;2.60;;
23714;SDS011;12036;50.858;4.472;2023-08-06T05:33:51;10.70;;;2.97;;
23714;SDS011;12036;50.858;4.472;2023-08-06T05:36:17;5.50;;;2.45;;
23714;SDS011;12036;50.858;4.472;2023-08-06T05:38:42;4.90;;;2.67;;
23714;SDS011;12036;50.858;4.472;2023-08-06T05:41:08;8.57;;;3.08;;
23714;SDS011;12036;50.858;4.472;2023-08-06T05:43:34;10.48;;;2.45;;
23714;SDS011;12036;50.858;4.472;2023-08-06T05:45:59;5.03;;;2.50;;
23714;SDS011;12036;50.858;4.472;2023-08-06T05:48:25;9.70;;;2.90;;
23714;SDS011;12036;50.858;4.472;2023-08-06T05:50:52;9.00;;;2.72;;
23714;SDS011;12036;50.858;4.472;2023-08-06T05:53:18;8.63;;;2.88;;
23714;SDS011;12036;50.858;4.472;2023-08-06T05:55:44;6.65;;;3.28;;
23714;SDS011;12036;50.858;4.472;2023-08-06T05:58:10;9.60;;;3.60;;
23714;SDS011;12036;50.858;4.472;2023-08-06T06:00:35;8.93;;;3.10;;
23714;SDS011;12036;50.858;4.472;2023-08-06T06:03:01;10.52;;;3.20;;
23714;SDS011;12036;50.858;4.472;2023-08-06T06:05:27;7.30;;;2.75;;
23714;SDS011;12036;50.858;4.472;2023-08-06T06:07:53;11.05;;;3.42;;
23714;SDS011;12036;50.858;4.472;2023-08-06T06:10:19;9.57;;;2.97;;
23714;SDS011;12036;50.858;4.472;2023-08-06T06:12:44;12.10;;;2.55;;
23714;SDS011;12036;50.858;4.472;2023-08-06T06:15:10;11.63;;;2.70;;
23714;SDS011;12036;50.858;4.472;2023-08-06T06:17:36;10.98;;;3.13;;
23714;SDS011;12036;50.858;4.472;2023-08-06T06:20:01;12.35;;;2.88;;
23714;SDS011;12036;50.858;4.472;2023-08-06T06:22:29;4.22;;;2.33;;
23714;SDS011;12036;50.858;4.472;2023-08-06T06:24:54;10.07;;;2.83;;
23714;SDS011;12036;50.858;4.472;2023-08-06T06:27:20;10.88;;;2.95;;
23714;SDS011;12036;50.858;4.472;2023-08-06T06:29:46;13.15;;;2.97;;
23714;SDS011;12036;50.858;4.472;2023-08-06T06:32:11;13.45;;;3.08;;
23714;SDS011;12036;50.858;4.472;2023-08-06T06:34:37;13.40;;;3.05;;
23714;SDS011;12036;50.858;4.472;2023-08-06T06:37:03;7.95;;;2.78;;
23714;SDS011;12036;50.858;4.472;2023-08-06T06:39:29;12.75;;;3.00;;
23714;SDS011;12036;50.858;4.472;2023-08-06T06:41:54;6.63;;;2.92;;
23714;SDS011;12036;50.858;4.472;2023-08-06T06:44:20;11.70;;;3.03;;
23714;SDS011;12036;50.858;4.472;2023-08-06T06:46:46;12.63;;;3.45;;
23714;SDS011;12036;50.858;4.472;2023-08-06T06:49:11;8.75;;;3.05;;
23714;SDS011;12036;50.858;4.472;2023-08-06T06:51:37;11.90;;;3.55;;
23714;SDS011;12036;50.858;4.472;2023-08-06T06:54:02;16.00;;;3.58;;
23714;SDS011;12036;50.858;4.472;2023-08-06T06:56:28;12.90;;;3.80;;
23714;SDS011;12036;50.858;4.472;2023-08-06T06:58:54;11.45;;;3.22;;
23714;SDS011;12036;50.858;4.472;2023-08-06T07:01:20;17.48;;;3.80;;
23714;SDS011;12036;50.858;4.472;2023-08-06T07:03:45;10.98;;;3.83;;
23714;SDS011;12036;50.858;4.472;2023-08-06T07:06:11;12.23;;;3.70;;
23714;SDS011;12036;50.858;4.472;2023-08-06T07:08:37;16.80;;;3.35;;
23714;SDS011;12036;50.858;4.472;2023-08-06T07:11:04;11.63;;;2.97;;
23714;SDS011;12036;50.858;4.472;2023-08-06T07:13:31;11.85;;;2.72;;
23714;SDS011;12036;50.858;4.472;2023-08-06T07:15:57;9.07;;;2.97;;
23714;SDS011;12036;50.858;4.472;2023-08-06T07:18:23;6.53;;;2.90;;
23714;SDS011;12036;50.858;4.472;2023-08-06T07:20:52;9.50;;;2.67;;
23714;SDS011;12036;50.858;4.472;2023-08-06T07:23:22;10.60;;;2.63;;
23714;SDS011;12036;50.858;4.472;2023-08-06T07:25:50;16.45;;;3.30;;
23714;SDS011;12036;50.858;4.472;2023-08-06T07:28:16;9.27;;;2.60;;
23714;SDS011;12036;50.858;4.472;2023-08-06T07:30:43;12.38;;;2.35;;
23714;SDS011;12036;50.858;4.472;2023-08-06T07:33:10;8.15;;;2.15;;
23714;SDS011;12036;50.858;4.472;2023-08-06T07:35:36;10.70;;;2.33;;
23714;SDS011;12036;50.858;4.472;2023-08-06T07:38:02;9.73;;;1.92;;
23714;SDS011;12036;50.858;4.472;2023-08-06T07:40:28;16.02;;;2.35;;
23714;SDS011;12036;50.858;4.472;2023-08-06T07:42:54;7.38;;;1.83;;
23714;SDS011;12036;50.858;4.472;2023-08-06T07:45:20;11.82;;;2.22;;
23714;SDS011;12036;50.858;4.472;2023-08-06T07:47:45;5.60;;;1.50;;
23714;SDS011;12036;50.858;4.472;2023-08-06T07:50:11;15.27;;;2.03;;
23714;SDS011;12036;50.858;4.472;2023-08-06T07:52:38;12.23;;;1.75;;
23714;SDS011;12036;50.858;4.472;2023-08-06T07:55:03;8.65;;;1.40;;
23714;SDS011;12036;50.858;4.472;2023-08-06T07:57:33;9.18;;;1.30;;
23714;SDS011;12036;50.858;4.472;2023-08-06T07:59:59;6.90;;;1.48;;
23714;SDS011;12036;50.858;4.472;2023-08-06T08:02:25;7.50;;;1.35;;
23714;SDS011;12036;50.858;4.472;2023-08-06T08:04:51;14.63;;;1.50;;
23714;SDS011;12036;50.858;4.472;2023-08-06T08:07:17;15.32;;;1.45;;
23714;SDS011;12036;50.858;4.472;2023-08-06T08:09:43;8.98;;;1.33;;
23714;SDS011;12036;50.858;4.472;2023-08-06T08:12:09;10.82;;;1.60;;
23714;SDS011;12036;50.858;4.472;2023-08-06T08:14:34;7.68;;;1.27;;
23714;SDS011;12036;50.858;4.472;2023-08-06T08:17:02;5.47;;;1.17;;
23714;SDS011;12036;50.858;4.472;2023-08-06T08:19:29;5.68;;;1.40;;
23714;SDS011;12036;50.858;4.472;2023-08-06T08:21:54;6.15;;;1.52;;
23714;SDS011;12036;50.858;4.472;2023-08-06T08:24:20;7.32;;;1.25;;
23714;SDS011;12036;50.858;4.472;2023-08-06T08:26:49;11.13;;;1.33;;
23714;SDS011;12036;50.858;4.472;2023-08-06T08:29:20;5.20;;;1.25;;
23714;SDS011;12036;50.858;4.472;2023-08-06T08:31:47;8.75;;;1.20;;
23714;SDS011;12036;50.858;4.472;2023-08-06T08:34:14;10.23;;;1.35;;
23714;SDS011;12036;50.858;4.472;2023-08-06T08:36:43;8.68;;;0.93;;
23714;SDS011;12036;50.858;4.472;2023-08-06T08:39:11;8.32;;;1.20;;
23714;SDS011;12036;50.858;4.472;2023-08-06T08:41:37;6.55;;;1.02;;
23714;SDS011;12036;50.858;4.472;2023-08-06T08:44:05;6.32;;;1.13;;
23714;SDS011;12036;50.858;4.472;2023-08-06T08:46:37;2.88;;;1.40;;
23714;SDS011;12036;50.858;4.472;2023-08-06T08:49:05;10.40;;;1.83;;
23714;SDS011;12036;50.858;4.472;2023-08-06T08:51:31;7.35;;;1.00;;
23714;SDS011;12036;50.858;4.472;2023-08-06T08:53:59;4.43;;;1.45;;
23714;SDS011;12036;50.858;4.472;2023-08-06T08:56:27;10.63;;;1.83;;
23714;SDS011;12036;50.858;4.472;2023-08-06T08:58:53;12.43;;;1.83;;
23714;SDS011;12036;50.858;4.472;2023-08-06T09:01:20;16.58;;;1.70;;
23714;SDS011;12036;50.858;4.472;2023-08-06T09:03:47;13.35;;;1.92;;
23714;SDS011;12036;50.858;4.472;2023-08-06T09:06:13;7.32;;;1.63;;
23714;SDS011;12036;50.858;4.472;2023-08-06T09:08:47;6.65;;;1.75;;
23714;SDS011;12036;50.858;4.472;2023-08-06T09:11:20;5.50;;;1.25;;
23714;SDS011;12036;50.858;4.472;2023-08-06T09:13:46;7.90;;;2.05;;
23714;SDS011;12036;50.858;4.472;2023-08-06T09:16:13;9.80;;;1.52;;
23714;SDS011;12036;50.858;4.472;2023-08-06T09:18:38;7.15;;;1.40;;
23714;SDS011;12036;50.858;4.472;2023-08-06T09:21:05;9.48;;;1.33;;
23714;SDS011;12036;50.858;4.472;2023-08-06T09:23:31;9.05;;;1.40;;
23714;SDS011;12036;50.858;4.472;2023-08-06T09:25:58;6.97;;;1.30;;
23714;SDS011;12036;50.858;4.472;2023-08-06T09:28:24;7.07;;;1.33;;
23714;SDS011;12036;50.858;4.472;2023-08-06T09:31:01;8.20;;;1.40;;
23714;SDS011;12036;50.858;4.472;2023-08-06T09:33:26;8.23;;;1.30;;
23714;SDS011;12036;50.858;4.472;2023-08-06T09:35:54;8.10;;;1.55;;
23714;SDS011;12036;50.858;4.472;2023-08-06T09:38:20;6.47;;;1.55;;
23714;SDS011;12036;50.858;4.472;2023-08-06T09:40:46;3.88;;;1.45;;
23714;SDS011;12036;50.858;4.472;2023-08-06T09:43:12;7.05;;;1.50;;
23714;SDS011;12036;50.858;4.472;2023-08-06T09:45:38;9.48;;;1.50;;
23714;SDS011;12036;50.858;4.472;2023-08-06T09:48:08;8.18;;;2.00;;
23714;SDS011;12036;50.858;4.472;2023-08-06T09:50:35;5.25;;;1.50;;
23714;SDS011;12036;50.858;4.472;2023-08-06T09:53:02;7.57;;;1.55;;
23714;SDS011;12036;50.858;4.472;2023-08-06T09:55:33;5.53;;;1.77;;
23714;SDS011;12036;50.858;4.472;2023-08-06T09:57:59;5.80;;;1.40;;
23714;SDS011;12036;50.858;4.472;2023-08-06T10:00:25;9.23;;;1.92;;
23714;SDS011;12036;50.858;4.472;2023-08-06T10:02:52;5.05;;;1.98;;
23714;SDS011;12036;50.858;4.472;2023-08-06T10:05:21;8.38;;;1.88;;
23714;SDS011;12036;50.858;4.472;2023-08-06T10:07:47;7.28;;;2.00;;
23714;SDS011;12036;50.858;4.472;2023-08-06T10:10:15;8.77;;;1.50;;
23714;SDS011;12036;50.858;4.472;2023-08-06T10:12:46;9.40;;;1.80;;
23714;SDS011;12036;50.858;4.472;2023-08-06T10:15:15;7.82;;;1.63;;
23714;SDS011;12036;50.858;4.472;2023-08-06T10:17:43;11.82;;;1.58;;
23714;SDS011;12036;50.858;4.472;2023-08-06T10:20:12;9.25;;;1.42;;
23714;SDS011;12036;50.858;4.472;2023-08-06T10:22:42;8.65;;;1.88;;
23714;SDS011;12036;50.858;4.472;2023-08-06T10:25:13;8.10;;;1.92;;
23714;SDS011;12036;50.858;4.472;2023-08-06T10:32:53;6.55;;;1.42;;
23714;SDS011;12036;50.858;4.472;2023-08-06T10:38:02;4.60;;;1.48;;
23714;SDS011;12036;50.858;4.472;2023-08-06T10:40:48;6.22;;;1.35;;
23714;SDS011;12036;50.858;4.472;2023-08-06T10:45:53;8.27;;;1.35;;
23714;SDS011;12036;50.858;4.472;2023-08-06T10:48:35;5.97;;;1.30;;
23714;SDS011;12036;50.858;4.472;2023-08-06T10:51:03;8.73;;;1.45;;
23714;SDS011;12036;50.858;4.472;2023-08-06T10:53:32;7.30;;;1.23;;
23714;SDS011;12036;50.858;4.472;2023-08-06T10:55:58;5.10;;;1.10;;
23714;SDS011;12036;50.858;4.472;2023-08-06T10:58:25;8.25;;;1.50;;
23714;SDS011;12036;50.858;4.472;2023-08-06T11:00:51;5.90;;;1.42;;
23714;SDS011;12036;50.858;4.472;2023-08-06T11:03:16;8.27;;;1.20;;
23714;SDS011;12036;50.858;4.472;2023-08-06T11:05:48;9.98;;;1.70;;
23714;SDS011;12036;50.858;4.472;2023-08-06T11:08:27;13.27;;;1.88;;
23714;SDS011;12036;50.858;4.472;2023-08-06T11:10:53;11.50;;;1.98;;
23714;SDS011;12036;50.858;4.472;2023-08-06T11:13:20;9.77;;;2.17;;
23714;SDS011;12036;50.858;4.472;2023-08-06T11:15:46;7.72;;;2.10;;
23714;SDS011;12036;50.858;4.472;2023-08-06T11:18:12;11.00;;;2.13;;
23714;SDS011;12036;50.858;4.472;2023-08-06T11:20:38;6.47;;;1.55;;
23714;SDS011;12036;50.858;4.472;2023-08-06T11:23:04;9.48;;;1.75;;
23714;SDS011;12036;50.858;4.472;2023-08-06T11:25:30;11.35;;;1.65;;
23714;SDS011;12036;50.858;4.472;2023-08-06T11:28:01;9.18;;;1.80;;
23714;SDS011;12036;50.858;4.472;2023-08-06T11:30:26;10.45;;;2.13;;
23714;SDS011;12036;50.858;4.472;2023-08-06T11:32:52;11.27;;;1.73;;
23714;SDS011;12036;50.858;4.472;2023-08-06T11:35:18;6.93;;;1.73;;
23714;SDS011;12036;50.858;4.472;2023-08-06T11:37:44;6.75;;;1.60;;
23714;SDS011;12036;50.858;4.472;2023-08-06T11:40:11;4.47;;;1.67;;
23714;SDS011;12036;50.858;4.472;2023-08-06T11:42:39;8.52;;;1.60;;
23714;SDS011;12036;50.858;4.472;2023-08-06T11:45:05;7.57;;;1.98;;
23714;SDS011;12036;50.858;4.472;2023-08-06T11:47:31;8.05;;;1.88;;
23714;SDS011;12036;50.858;4.472;2023-08-06T11:49:57;5.88;;;1.63;;
23714;SDS011;12036;50.858;4.472;2023-08-06T11:52:23;5.18;;;1.52;;
23714;SDS011;12036;50.858;4.472;2023-08-06T11:55:02;6.60;;;1.55;;
23714;SDS011;12036;50.858;4.472;2023-08-06T11:57:35;6.88;;;1.60;;
23714;SDS011;12036;50.858;4.472;2023-08-06T12:00:02;3.40;;;1.13;;
23714;SDS011;12036;50.858;4.472;2023-08-06T12:02:35;5.47;;;1.45;;
23714;SDS011;12036;50.858;4.472;2023-08-06T12:07:31;4.68;;;1.13;;
23714;SDS011;12036;50.858;4.472;2023-08-06T12:09:58;5.07;;;1.23;;
23714;SDS011;12036;50.858;4.472;2023-08-06T12:12:24;7.38;;;1.40;;
23714;SDS011;12036;50.858;4.472;2023-08-06T12:14:50;7.75;;;1.67;;
23714;SDS011;12036;50.858;4.472;2023-08-06T12:17:16;7.03;;;1.20;;
23714;SDS011;12036;50.858;4.472;2023-08-06T12:19:43;9.00;;;1.73;;
23714;SDS011;12036;50.858;4.472;2023-08-06T12:22:10;8.30;;;1.70;;
23714;SDS011;12036;50.858;4.472;2023-08-06T12:24:36;6.85;;;1.65;;
23714;SDS011;12036;50.858;4.472;2023-08-06T12:27:02;8.10;;;1.80;;
23714;SDS011;12036;50.858;4.472;2023-08-06T12:29:28;10.13;;;1.63;;
23714;SDS011;12036;50.858;4.472;2023-08-06T12:31:53;6.75;;;1.58;;
23714;SDS011;12036;50.858;4.472;2023-08-06T12:34:19;8.60;;;1.83;;
23714;SDS011;12036;50.858;4.472;2023-08-06T12:36:44;7.38;;;2.22;;
23714;SDS011;12036;50.858;4.472;2023-08-06T12:39:10;10.27;;;1.55;;
23714;SDS011;12036;50.858;4.472;2023-08-06T12:41:36;6.50;;;1.67;;
23714;SDS011;12036;50.858;4.472;2023-08-06T12:44:01;11.70;;;2.00;;
23714;SDS011;12036;50.858;4.472;2023-08-06T12:46:27;8.98;;;1.38;;
23714;SDS011;12036;50.858;4.472;2023-08-06T12:48:53;4.80;;;1.20;;
23714;SDS011;12036;50.858;4.472;2023-08-06T12:51:18;8.23;;;1.38;;
23714;SDS011;12036;50.858;4.472;2023-08-06T12:53:44;5.07;;;1.30;;
23714;SDS011;12036;50.858;4.472;2023-08-06T12:56:09;10.35;;;1.52;;
23714;SDS011;12036;50.858;4.472;2023-08-06T12:58:35;5.90;;;1.33;;
23714;SDS011;12036;50.858;4.472;2023-08-06T13:01:01;8.00;;;1.77;;
23714;SDS011;12036;50.858;4.472;2023-08-06T13:03:26;5.75;;;1.13;;
23714;SDS011;12036;50.858;4.472;2023-08-06T13:05:52;9.07;;;1.17;;
23714;SDS011;12036;50.858;4.472;2023-08-06T13:08:18;3.90;;;1.30;;
23714;SDS011;12036;50.858;4.472;2023-08-06T13:10:44;4.95;;;1.30;;
23714;SDS011;12036;50.858;4.472;2023-08-06T13:13:09;8.05;;;1.27;;
23714;SDS011;12036;50.858;4.472;2023-08-06T13:15:35;4.40;;;1.25;;
23714;SDS011;12036;50.858;4.472;2023-08-06T13:18:01;9.00;;;1.38;;
23714;SDS011;12036;50.858;4.472;2023-08-06T13:20:29;5.43;;;1.48;;
23714;SDS011;12036;50.858;4.472;2023-08-06T13:22:55;11.50;;;1.50;;
23714;SDS011;12036;50.858;4.472;2023-08-06T13:25:23;10.45;;;1.63;;
23714;SDS011;12036;50.858;4.472;2023-08-06T13:27:48;6.43;;;1.40;;
23714;SDS011;12036;50.858;4.472;2023-08-06T13:30:15;8.85;;;1.40;;
23714;SDS011;12036;50.858;4.472;2023-08-06T13:32:43;5.85;;;1.55;;
23714;SDS011;12036;50.858;4.472;2023-08-06T13:35:09;5.57;;;1.45;;
23714;SDS011;12036;50.858;4.472;2023-08-06T13:37:35;7.50;;;1.70;;
23714;SDS011;12036;50.858;4.472;2023-08-06T13:40:01;9.25;;;2.25;;
23714;SDS011;12036;50.858;4.472;2023-08-06T13:42:27;3.58;;;1.30;;
23714;SDS011;12036;50.858;4.472;2023-08-06T13:44:54;8.85;;;1.67;;
23714;SDS011;12036;50.858;4.472;2023-08-06T13:47:24;4.93;;;1.38;;
23714;SDS011;12036;50.858;4.472;2023-08-06T13:49:50;12.45;;;1.95;;
23714;SDS011;12036;50.858;4.472;2023-08-06T13:52:16;4.32;;;1.38;;
23714;SDS011;12036;50.858;4.472;2023-08-06T13:54:41;5.80;;;1.55;;
23714;SDS011;12036;50.858;4.472;2023-08-06T13:57:07;7.78;;;1.25;;
23714;SDS011;12036;50.858;4.472;2023-08-06T13:59:33;4.43;;;1.10;;
23714;SDS011;12036;50.858;4.472;2023-08-06T14:01:58;8.55;;;1.30;;
23714;SDS011;12036;50.858;4.472;2023-08-06T14:04:25;5.85;;;1.52;;
23714;SDS011;12036;50.858;4.472;2023-08-06T14:06:50;6.00;;;1.17;;
23714;SDS011;12036;50.858;4.472;2023-08-06T14:09:16;4.38;;;1.13;;
23714;SDS011;12036;50.858;4.472;2023-08-06T14:11:43;5.60;;;1.15;;
23714;SDS011;12036;50.858;4.472;2023-08-06T14:14:10;12.18;;;1.45;;
23714;SDS011;12036;50.858;4.472;2023-08-06T14:16:36;4.30;;;1.00;;
23714;SDS011;12036;50.858;4.472;2023-08-06T14:19:02;5.13;;;1.23;;
23714;SDS011;12036;50.858;4.472;2023-08-06T14:21:28;8.38;;;1.60;;
23714;SDS011;12036;50.858;4.472;2023-08-06T14:23:54;5.80;;;1.40;;
23714;SDS011;12036;50.858;4.472;2023-08-06T14:26:20;4.18;;;1.13;;
23714;SDS011;12036;50.858;4.472;2023-08-06T14:28:45;5.78;;;1.20;;
23714;SDS011;12036;50.858;4.472;2023-08-06T14:31:11;11.13;;;1.48;;
23714;SDS011;12036;50.858;4.472;2023-08-06T14:33:37;4.50;;;1.50;;
23714;SDS011;12036;50.858;4.472;2023-08-06T14:36:03;7.70;;;1.80;;
23714;SDS011;12036;50.858;4.472;2023-08-06T14:38:28;8.13;;;1.85;;
23714;SDS011;12036;50.858;4.472;2023-08-06T14:40:54;6.30;;;1.48;;
23714;SDS011;12036;50.858;4.472;2023-08-06T14:43:20;6.90;;;1.45;;
23714;SDS011;12036;50.858;4.472;2023-08-06T14:45:45;4.43;;;1.20;;
23714;SDS011;12036;50.858;4.472;2023-08-06T14:48:11;6.45;;;1.75;;
23714;SDS011;12036;50.858;4.472;2023-08-06T14:50:37;8.98;;;1.58;;
23714;SDS011;12036;50.858;4.472;2023-08-06T14:53:04;5.85;;;1.77;;
23714;SDS011;12036;50.858;4.472;2023-08-06T14:55:30;11.73;;;1.75;;
23714;SDS011;12036;50.858;4.472;2023-08-06T14:57:57;8.85;;;1.70;;